LLHA/HFA METAR and TAF weather

Enter ICAO airport designator
Station Type Date Time Source
LLHA METAR 2019/12/07 14:50 UTC NOAA

LLHA 071450Z 33004KT 9999 FEW044 17/08 Q1017


Station Type Date Time Source
LLHA Decoded METAR 2019/12/07 14:50 UTC NOAA

Sde-Haifa Haifa, Israel (LLHA) 32-48N 035-02E 8M
Dec 07, 2019 - 09:50 AM EST / 2019.12.07 1450 UTC
Wind: from the NNW (330 degrees) at 5 MPH (4 KT):0
Visibility: greater than 7 mile(s):0
Sky conditions: mostly clear
Temperature: 62 F (17 C)
Dew Point: 46 F (8 C)
Relative Humidity: 55%
Pressure (altimeter): 30.03 in. Hg (1017 hPa)
ob: LLHA 071450Z 33004KT 9999 FEW044 17/08 Q1017
cycle: 15

Station Type Date Time Source
LLHA TAF 2019/12/07 12:00 UTC NOAA

TAF LLHA 071115Z 0712/0812 34008KT 9999 SCT040
BECMG 0715/0717 15005KT
TEMPO 0717/0804 -RA BKN030
BECMG 0804/0806 16009KT SCT035 PROB40 0806/0812 22014KT 7000 RA FEW025TCU BKN030 TX19/0712Z TN12/0804Z

Example: see airport list